Time;durP1;ratioP1;P1;durP2;ratioP2;P2;SDS_P1;SDS_P2;PMS_P1;PMS_P2;Temp;Humidity;BMP_temperature;BMP_pressure;BME280_temperature;BME280_humidity;BME280_pressure;Samples;Min_cycle;Max_cycle;Signal;HPM_P1;HPM_P2
2022/12/26 00:00:57;;;;;;;16.90;12.57;;;27.30;65.70;;;;;;4059798;29;20075;-47
2022/12/26 00:03:20;;;;;;;13.15;11.02;;;27.40;66.40;;;;;;4062923;29;20043;-42
2022/12/26 00:05:42;;;;;;;11.18;9.95;;;27.30;65.60;;;;;;4058220;29;20057;-43
2022/12/26 00:08:06;;;;;;;12.68;9.82;;;27.30;65.50;;;;;;4064954;29;20036;-42
2022/12/26 00:10:29;;;;;;;10.43;9.18;;;27.30;65.20;;;;;;4060527;29;20119;-43
2022/12/26 00:12:51;;;;;;;9.20;7.72;;;27.40;65.10;;;;;;4063341;29;20500;-42
2022/12/26 00:15:14;;;;;;;8.40;7.40;;;27.40;64.90;;;;;;4062160;29;20075;-43
2022/12/26 00:17:36;;;;;;;7.97;6.78;;;27.40;64.80;;;;;;4066235;29;20051;-42
2022/12/26 00:19:58;;;;;;;8.00;6.70;;;27.40;64.60;;;;;;4061217;29;20068;-42
2022/12/26 00:22:21;;;;;;;7.97;6.93;;;27.40;64.60;;;;;;4063529;29;20513;-47
2022/12/26 00:24:43;;;;;;;7.80;6.57;;;27.40;64.40;;;;;;4057265;29;20040;-48
2022/12/26 00:27:05;;;;;;;7.55;6.22;;;27.40;64.40;;;;;;4060433;29;20035;-51
2022/12/26 00:29:28;;;;;;;6.30;5.60;;;27.40;64.20;;;;;;4055326;29;20044;-47
2022/12/26 00:31:50;;;;;;;5.82;5.13;;;27.40;64.10;;;;;;4056382;29;20401;-46
2022/12/26 00:34:13;;;;;;;7.03;5.10;;;27.40;64.00;;;;;;4052137;29;21205;-45
2022/12/26 00:36:35;;;;;;;6.03;4.78;;;27.40;64.00;;;;;;4059601;29;20070;-45
2022/12/26 00:38:59;;;;;;;6.13;4.65;;;27.50;63.90;;;;;;4060984;29;20044;-48
2022/12/26 00:41:22;;;;;;;5.80;4.80;;;27.50;63.80;;;;;;4052782;29;20466;-43
2022/12/26 00:43:45;;;;;;;5.40;4.30;;;27.50;63.90;;;;;;4052766;29;20040;-43
2022/12/26 00:46:08;;;;;;;5.15;4.30;;;27.50;63.80;;;;;;4059818;29;20610;-45
2022/12/26 00:48:31;;;;;;;4.53;3.85;;;27.50;63.60;;;;;;4057198;29;20045;-49
2022/12/26 00:50:53;;;;;;;4.90;3.40;;;27.50;63.70;;;;;;4062234;29;20036;-47
2022/12/26 00:53:16;;;;;;;5.35;3.47;;;27.50;63.60;;;;;;4057205;29;20056;-44
2022/12/26 10:14:34;;;;;;;1.58;0.80;;;31.00;51.10;;;;;;4030417;29;20056;-52
2022/12/26 10:17:00;;;;;;;1.40;0.70;;;31.00;51.20;;;;;;4021981;29;20604;-50
2022/12/26 10:19:35;;;;;;;1.45;0.75;;;31.00;51.40;;;;;;4022000;29;20054;-48
2022/12/26 10:22:42;;;;;;;0.98;0.45;;;31.00;51.60;;;;;;4025261;29;20542;-52
2022/12/26 10:25:21;;;;;;;1.10;0.50;;;31.00;51.70;;;;;;4025308;29;20041;-46
2022/12/26 10:27:48;;;;;;;1.27;0.82;;;31.00;51.20;;;;;;4025168;29;20044;-47
2022/12/26 10:30:23;;;;;;;1.33;0.60;;;31.00;51.90;;;;;;4026866;29;20044;-44
2022/12/26 10:32:55;;;;;;;1.30;0.65;;;31.00;52.00;;;;;;4026449;29;20502;-50
2022/12/26 10:35:38;;;;;;;1.42;0.70;;;31.00;52.00;;;;;;4023988;29;20125;-50
2022/12/26 10:38:29;;;;;;;1.75;0.70;;;31.00;52.10;;;;;;4027117;29;20041;-49
2022/12/26 10:40:55;;;;;;;1.05;0.52;;;31.00;52.10;;;;;;4027966;29;20049;-49
2022/12/26 10:43:25;;;;;;;1.35;0.60;;;31.00;52.20;;;;;;4030807;29;20490;-51
2022/12/26 10:45:52;;;;;;;1.23;0.57;;;31.00;52.20;;;;;;4039187;29;20066;-47
2022/12/26 10:48:16;;;;;;;1.58;0.57;;;31.00;52.30;;;;;;4024379;29;20041;-51
2022/12/26 10:50:43;;;;;;;1.30;0.63;;;31.00;52.40;;;;;;4029202;29;20053;-45
2022/12/26 10:53:12;;;;;;;0.65;0.47;;;31.00;52.50;;;;;;4022592;29;20521;-47
2022/12/26 10:55:35;;;;;;;1.65;0.70;;;31.00;52.50;;;;;;4032557;29;20095;-51
2022/12/26 10:58:05;;;;;;;1.25;0.70;;;31.00;52.50;;;;;;4030046;29;20051;-46
2022/12/26 11:00:29;;;;;;;1.58;0.60;;;30.90;52.50;;;;;;4028649;29;20563;-50
2022/12/26 11:03:07;;;;;;;;;;;30.90;52.50;;;;;;4026686;29;20037;-45
2022/12/26 11:05:31;;;;;;;1.10;0.47;;;31.00;52.60;;;;;;4030271;29;19994;-49
2022/12/26 11:08:04;;;;;;;;;;;30.90;52.60;;;;;;4028889;29;20425;-50
2022/12/26 11:10:29;;;;;;;2.00;0.73;;;30.90;52.70;;;;;;4023073;29;20374;-50
2022/12/26 11:13:04;;;;;;;0.95;0.40;;;30.90;52.70;;;;;;4026569;29;20207;-50
2022/12/26 11:15:31;;;;;;;0.98;0.50;;;30.90;52.70;;;;;;4047060;29;20531;-50
2022/12/26 11:18:05;;;;;;;1.25;0.60;;;30.90;52.80;;;;;;4057903;29;20119;-53
2022/12/26 11:20:30;;;;;;;1.05;0.40;;;30.90;52.80;;;;;;4050477;29;20044;-50
2022/12/26 11:22:53;;;;;;;0.45;0.40;;;30.90;52.90;;;;;;4057537;29;20131;-52
2022/12/26 11:25:18;;;;;;;0.60;0.43;;;30.90;52.90;;;;;;4055427;29;20046;-51
2022/12/26 11:31:00;;;;;;;1.23;0.40;;;30.80;52.90;;;;;;4055772;29;20469;-49
2022/12/26 11:33:30;;;;;;;1.65;0.50;;;30.80;53.00;;;;;;4039040;29;20508;-46
2022/12/26 11:36:16;;;;;;;1.00;0.50;;;30.80;53.00;;;;;;4048494;29;20063;-48
2022/12/26 11:38:49;;;;;;;0.88;0.47;;;30.80;53.00;;;;;;4050185;29;20036;-50
2022/12/26 11:41:42;;;;;;;1.30;0.50;;;30.80;53.10;;;;;;4052592;29;20475;-46
2022/12/26 11:44:23;;;;;;;1.48;0.65;;;30.70;53.10;;;;;;4053810;29;20433;-52
2022/12/26 11:46:55;;;;;;;2.20;0.50;;;30.70;53.10;;;;;;4067823;29;20411;-47
2022/12/26 11:49:25;;;;;;;1.25;0.77;;;30.70;53.20;;;;;;4063932;29;20110;-48
2022/12/26 11:51:49;;;;;;;1.05;0.63;;;30.70;53.20;;;;;;4060070;29;20051;-49
2022/12/26 11:54:28;;;;;;;1.33;0.60;;;30.70;53.30;;;;;;4059968;29;20090;-46
2022/12/26 11:57:00;;;;;;;1.55;0.50;;;30.70;53.30;;;;;;4057380;29;20052;-51
2022/12/26 11:59:24;;;;;;;1.35;0.68;;;30.70;53.30;;;;;;4063229;29;20032;-49
2022/12/26 12:01:49;;;;;;;1.20;0.60;;;30.70;53.40;;;;;;4062896;29;20066;-47
2022/12/26 12:04:12;;;;;;;1.10;0.57;;;30.70;53.40;;;;;;4059257;29;20036;-50
2022/12/26 12:06:42;;;;;;;6.00;1.05;;;30.60;53.40;;;;;;4045362;29;20336;-53
2022/12/26 12:09:34;;;;;;;3.05;0.98;;;30.60;53.60;;;;;;4061023;29;20107;-54
2022/12/26 12:12:25;;;;;;;5.10;0.80;;;30.60;53.90;;;;;;4059951;29;20043;-48
2022/12/26 12:15:16;;;;;;;4.10;1.17;;;30.60;54.00;;;;;;4054851;29;20083;-49
2022/12/26 12:17:57;;;;;;;2.85;0.80;;;30.60;54.20;;;;;;4059789;29;20043;-52
2022/12/26 12:20:43;;;;;;;3.95;1.10;;;30.60;54.30;;;;;;4055717;29;20052;-47
2022/12/26 12:23:24;;;;;;;1.88;0.55;;;30.60;54.60;;;;;;4059263;29;20039;-54
2022/12/26 12:26:10;;;;;;;6.05;0.95;;;30.60;54.80;;;;;;4039676;29;20092;-50
2022/12/26 12:28:42;;;;;;;3.05;0.60;;;30.60;54.90;;;;;;4061729;29;20044;-52
2022/12/26 12:31:15;;;;;;;1.00;0.55;;;30.60;55.00;;;;;;4057369;29;20230;-47
2022/12/26 12:33:55;;;;;;;2.05;0.60;;;30.60;55.10;;;;;;4054704;29;20476;-45
2022/12/26 12:36:48;;;;;;;4.05;0.98;;;30.60;55.30;;;;;;4055355;29;20415;-47
2022/12/26 12:39:55;;;;;;;3.65;0.90;;;30.60;55.40;;;;;;4059630;29;20044;-44
2022/12/26 12:42:23;;;;;;;1.48;0.60;;;30.60;55.60;;;;;;4048940;29;20083;-45
2022/12/26 12:45:15;;;;;;;3.65;0.85;;;30.60;55.70;;;;;;4054955;29;20227;-49
2022/12/26 12:48:03;;;;;;;2.55;1.13;;;30.60;55.80;;;;;;4058487;29;20515;-48
2022/12/26 12:50:52;;;;;;;3.17;0.73;;;30.60;56.00;;;;;;4057275;29;20036;-48
2022/12/26 12:53:34;;;;;;;2.53;0.68;;;30.60;56.10;;;;;;4037772;29;20055;-43
2022/12/26 12:56:15;;;;;;;6.70;1.08;;;30.60;56.10;;;;;;4058748;29;20532;-49
2022/12/26 12:58:55;;;;;;;1.60;0.60;;;30.60;56.20;;;;;;4058315;29;20386;-49
2022/12/26 13:01:35;;;;;;;1.20;0.65;;;30.60;56.20;;;;;;4056720;29;20836;-45
2022/12/26 13:04:11;;;;;;;1.80;0.80;;;30.60;56.10;;;;;;4054689;29;20047;-46
2022/12/26 13:06:41;;;;;;;1.48;0.55;;;30.60;56.20;;;;;;4060224;29;20047;-47
2022/12/26 13:09:16;;;;;;;2.13;1.00;;;30.60;56.00;;;;;;4053624;29;20138;-49
2022/12/26 13:11:50;;;;;;;2.80;0.70;;;30.50;55.90;;;;;;4056744;29;20472;-52
2022/12/26 13:14:34;;;;;;;1.63;0.70;;;30.50;55.80;;;;;;4054355;29;20060;-50
2022/12/26 13:17:09;;;;;;;2.17;0.80;;;30.50;55.80;;;;;;4056008;29;20041;-49
2022/12/26 13:19:44;;;;;;;2.25;0.90;;;30.50;55.80;;;;;;4058076;29;20416;-48
2022/12/26 13:22:16;;;;;;;2.45;1.00;;;30.50;55.80;;;;;;4056192;29;20039;-44
2022/12/26 13:25:00;;;;;;;3.15;1.00;;;30.50;55.70;;;;;;4029879;29;20636;-49
2022/12/26 13:27:35;;;;;;;3.65;1.17;;;30.50;55.70;;;;;;4040385;29;20546;-49
2022/12/26 13:29:58;;;;;;;4.22;1.35;;;30.40;55.70;;;;;;4054945;29;20044;-50
2022/12/26 13:32:24;;;;;;;1.95;0.90;;;30.40;55.70;;;;;;4042635;29;20075;-45
2022/12/26 13:34:58;;;;;;;2.67;1.10;;;30.40;55.70;;;;;;4058756;29;20048;-48
2022/12/26 13:37:39;;;;;;;2.83;0.98;;;30.40;55.90;;;;;;4056042;29;20094;-49
2022/12/26 13:40:29;;;;;;;3.97;1.20;;;30.40;55.90;;;;;;4058271;29;20044;-50
2022/12/26 13:45:57;;;;;;;2.95;0.90;;;30.30;55.90;;;;;;4062205;29;20489;-53
2022/12/26 13:48:20;;;;;;;3.20;0.73;;;30.30;55.90;;;;;;4056328;29;20130;-54
2022/12/26 13:50:59;;;;;;;3.00;1.20;;;30.30;55.80;;;;;;4059997;29;20508;-48
2022/12/26 13:53:32;;;;;;;4.00;1.10;;;30.30;55.80;;;;;;4046545;29;20143;-47
2022/12/26 13:55:56;;;;;;;2.20;0.90;;;30.30;55.90;;;;;;4062382;29;20036;-47
2022/12/26 13:58:50;;;;;;;2.33;1.08;;;30.20;55.80;;;;;;4060224;29;20188;-49
2022/12/26 14:01:54;;;;;;;2.83;0.70;;;30.20;55.80;;;;;;4063339;29;20047;-53
2022/12/26 14:04:38;;;;;;;2.05;0.88;;;30.20;55.90;;;;;;4046838;29;20036;-54
2022/12/26 14:07:37;;;;;;;1.25;0.60;;;30.20;55.80;;;;;;4053205;29;20075;-52
2022/12/26 14:10:26;;;;;;;1.33;0.85;;;30.20;55.90;;;;;;4054183;29;20481;-53
2022/12/26 14:13:18;;;;;;;2.33;1.08;;;30.10;55.80;;;;;;4055046;29;20583;-53
2022/12/26 14:16:05;;;;;;;1.50;0.73;;;30.10;55.80;;;;;;4061744;29;20078;-49
2022/12/26 14:19:14;;;;;;;2.50;1.02;;;30.10;55.80;;;;;;4065548;29;20044;-51
2022/12/26 14:21:48;;;;;;;2.05;0.90;;;30.10;55.90;;;;;;3996139;29;20478;-54
2022/12/26 14:24:23;;;;;;;2.40;0.80;;;30.10;55.90;;;;;;4065667;29;20048;-53
2022/12/26 14:26:49;;;;;;;3.72;1.20;;;30.10;56.00;;;;;;4055463;29;20040;-47
2022/12/26 14:29:32;;;;;;;1.70;0.60;;;30.10;56.00;;;;;;4061545;29;20497;-47
2022/12/26 14:32:14;;;;;;;2.05;0.65;;;30.10;56.70;;;;;;4059881;29;20036;-47
2022/12/26 14:35:13;;;;;;;2.42;1.00;;;30.00;56.00;;;;;;4045084;29;20041;-46
2022/12/26 14:37:54;;;;;;;2.60;0.80;;;30.00;56.00;;;;;;4058388;29;20041;-49
2022/12/26 14:40:26;;;;;;;2.47;0.90;;;30.00;55.90;;;;;;4059684;29;20082;-52
2022/12/26 14:43:11;;;;;;;2.35;0.90;;;30.00;56.00;;;;;;4070581;29;20044;-47
2022/12/26 14:45:52;;;;;;;2.33;1.02;;;30.00;56.00;;;;;;4069166;29;20510;-51
2022/12/26 14:48:15;;;;;;;3.08;1.05;;;29.90;56.00;;;;;;4050619;29;20099;-48
2022/12/26 14:50:41;;;;;;;2.53;1.27;;;29.90;56.10;;;;;;4047297;29;20036;-49
2022/12/26 14:53:28;;;;;;;1.60;0.82;;;29.90;56.10;;;;;;4055560;29;20056;-51
2022/12/26 14:55:55;;;;;;;2.35;0.80;;;29.90;56.10;;;;;;4048707;29;20103;-48
2022/12/26 14:58:43;;;;;;;1.83;0.80;;;29.80;56.00;;;;;;4059739;29;20078;-49
2022/12/26 15:01:14;;;;;;;3.40;1.10;;;29.80;56.00;;;;;;4046290;29;20123;-51
2022/12/26 15:04:10;;;;;;;2.38;0.90;;;29.80;56.00;;;;;;4052249;29;20412;-49
2022/12/26 15:07:01;;;;;;;1.40;0.73;;;29.80;56.20;;;;;;4049674;29;20048;-48
2022/12/26 15:09:24;;;;;;;1.80;0.80;;;29.80;56.20;;;;;;4062879;29;20131;-47
2022/12/26 15:12:14;;;;;;;2.50;0.88;;;29.80;56.20;;;;;;4062004;29;20044;-46
2022/12/26 15:15:01;;;;;;;2.60;0.93;;;29.70;56.10;;;;;;4032794;29;20052;-47
2022/12/26 15:18:02;;;;;;;2.03;0.75;;;29.70;56.20;;;;;;4057100;29;20536;-45
2022/12/26 15:21:09;;;;;;;2.47;0.70;;;29.70;56.20;;;;;;4055558;29;20510;-45
2022/12/26 15:23:48;;;;;;;4.57;0.80;;;29.70;56.20;;;;;;4059597;29;20039;-47
2022/12/26 15:26:46;;;;;;;2.95;1.17;;;29.70;56.30;;;;;;4059622;29;20481;-57
2022/12/26 15:29:48;;;;;;;3.55;1.17;;;29.60;56.10;;;;;;4044772;29;20048;-52
2022/12/26 15:32:28;;;;;;;5.40;1.75;;;29.60;56.10;;;;;;4061889;29;20040;-56
2022/12/26 15:35:00;;;;;;;2.95;1.20;;;29.50;56.20;;;;;;4060185;29;20055;-57
2022/12/26 15:37:43;;;;;;;4.07;1.23;;;29.40;56.20;;;;;;4062629;29;20087;-51
2022/12/26 15:40:13;;;;;;;4.80;1.30;;;29.40;56.20;;;;;;4053432;29;20036;-57
2022/12/26 15:42:48;;;;;;;3.45;1.27;;;29.30;56.30;;;;;;4057776;29;20078;-57
2022/12/26 15:45:40;;;;;;;4.25;0.93;;;29.40;56.40;;;;;;4060996;29;20070;-57
2022/12/26 15:48:05;;;;;;;3.70;1.30;;;29.30;56.40;;;;;;4060102;29;20044;-58
2022/12/26 15:50:58;;;;;;;3.83;1.08;;;29.20;56.40;;;;;;4048907;29;20051;-51
2022/12/26 15:53:44;;;;;;;4.78;1.25;;;29.20;56.50;;;;;;4060991;29;20052;-52
2022/12/26 15:56:25;;;;;;;2.53;1.17;;;29.20;56.60;;;;;;4055020;29;20103;-55
2022/12/26 15:59:23;;;;;;;5.90;1.67;;;29.20;56.70;;;;;;4056527;29;20485;-51
2022/12/26 16:01:47;;;;;;;3.55;1.00;;;29.20;56.80;;;;;;4060086;29;20088;-53
2022/12/26 16:04:39;;;;;;;3.08;1.10;;;29.10;56.70;;;;;;4063245;29;20399;-53
2022/12/26 16:07:19;;;;;;;4.63;1.30;;;29.10;56.80;;;;;;4064012;29;20044;-53
2022/12/26 16:09:45;;;;;;;4.13;1.30;;;29.00;56.80;;;;;;4055576;29;20094;-53
2022/12/26 16:12:24;;;;;;;4.35;1.30;;;29.00;56.90;;;;;;4062509;29;20050;-53
2022/12/26 16:14:47;;;;;;;5.50;1.67;;;29.00;56.90;;;;;;4053990;29;20059;-51
2022/12/26 16:17:21;;;;;;;2.70;1.10;;;28.90;57.10;;;;;;4052552;29;20270;-53
2022/12/26 16:19:46;;;;;;;3.67;1.30;;;28.90;57.20;;;;;;4057027;29;20099;-54
2022/12/26 16:22:45;;;;;;;2.75;1.08;;;28.90;57.30;;;;;;4060309;29;20040;-45
2022/12/26 16:25:09;;;;;;;2.50;1.10;;;28.90;57.30;;;;;;4056342;29;20515;-52
2022/12/26 16:27:32;;;;;;;3.08;1.27;;;28.80;57.40;;;;;;4058690;29;20036;-57
2022/12/26 16:30:03;;;;;;;2.85;1.25;;;28.80;58.10;;;;;;4066937;29;20043;-56
2022/12/26 16:32:34;;;;;;;2.88;1.30;;;28.80;57.50;;;;;;4064021;29;20044;-51
2022/12/26 16:34:58;;;;;;;4.85;1.25;;;28.80;57.70;;;;;;4053417;29;20413;-52
2022/12/26 16:37:24;;;;;;;3.80;1.20;;;28.80;57.80;;;;;;4046888;29;20036;-51
2022/12/26 16:40:16;;;;;;;3.65;1.23;;;28.70;57.80;;;;;;4057944;29;20044;-58
2022/12/26 16:42:42;;;;;;;2.75;0.98;;;28.70;57.80;;;;;;4061978;29;20035;-48
2022/12/26 16:45:17;;;;;;;3.90;1.48;;;28.70;57.90;;;;;;4065084;29;20114;-50
2022/12/26 16:47:39;;;;;;;2.97;1.00;;;28.70;58.00;;;;;;4048218;29;20048;-48
2022/12/26 16:50:04;;;;;;;3.08;1.02;;;28.70;58.00;;;;;;4059841;29;20131;-56
2022/12/26 16:52:34;;;;;;;4.03;1.25;;;28.60;58.10;;;;;;4058271;29;20039;-57
2022/12/26 16:54:57;;;;;;;3.63;1.45;;;28.60;58.20;;;;;;4049376;29;20047;-56
2022/12/26 16:57:20;;;;;;;3.78;1.08;;;28.50;58.20;;;;;;4066766;29;20500;-55
2022/12/26 16:59:54;;;;;;;4.65;1.40;;;28.50;58.30;;;;;;4064312;29;20035;-55
2022/12/26 17:02:27;;;;;;;;;;;28.50;58.30;;;;;;4059043;29;20351;-56
2022/12/26 17:05:02;;;;;;;1.73;0.95;;;28.50;58.40;;;;;;4061181;29;20277;-54
2022/12/26 17:07:25;;;;;;;4.55;1.20;;;28.40;58.40;;;;;;4059944;29;20118;-51
2022/12/26 17:09:55;;;;;;;4.03;1.83;;;28.40;58.40;;;;;;4059833;29;20048;-56
2022/12/26 17:12:32;;;;;;;3.53;1.23;;;28.40;58.30;;;;;;4062593;29;20397;-55
2022/12/26 17:14:56;;;;;;;3.45;1.10;;;28.40;58.30;;;;;;4064319;29;20052;-51
2022/12/26 17:17:21;;;;;;;3.17;1.13;;;28.40;58.30;;;;;;4060777;29;20050;-47
2022/12/26 17:19:44;;;;;;;3.25;1.27;;;28.30;58.20;;;;;;4043190;29;20436;-47
2022/12/26 17:22:18;;;;;;;3.88;1.10;;;28.30;58.20;;;;;;4059778;29;20085;-53
2022/12/26 17:24:41;;;;;;;3.63;1.40;;;28.30;58.20;;;;;;4058045;29;20040;-51
2022/12/26 17:27:14;;;;;;;;;;;28.20;58.20;;;;;;4058193;29;20108;-50
2022/12/26 17:29:49;;;;;;;4.50;1.30;;;28.20;58.10;;;;;;4058466;29;19994;-49
2022/12/26 17:32:31;;;;;;;2.92;1.05;;;28.20;58.20;;;;;;4055740;29;20063;-54
2022/12/26 17:34:54;;;;;;;2.78;1.25;;;28.20;58.20;;;;;;4063063;29;20056;-51
2022/12/26 17:37:22;;;;;;;2.58;0.90;;;28.20;58.20;;;;;;4058934;29;20040;-52
2022/12/26 17:39:55;;;;;;;2.55;0.90;;;28.10;58.10;;;;;;4045860;29;20548;-48
2022/12/26 17:42:17;;;;;;;3.90;1.58;;;28.10;58.10;;;;;;4061902;29;20043;-49
2022/12/26 17:44:41;;;;;;;4.65;1.10;;;28.00;58.00;;;;;;4058371;29;20516;-50
2022/12/26 17:47:14;;;;;;;4.18;1.20;;;28.00;58.10;;;;;;4061195;29;20044;-49
2022/12/26 17:49:37;;;;;;;3.10;1.33;;;28.00;58.80;;;;;;4064431;29;20481;-48
2022/12/26 17:51:59;;;;;;;2.53;1.00;;;28.00;58.20;;;;;;4057380;29;20044;-48
2022/12/26 17:54:21;;;;;;;3.75;1.02;;;27.90;58.30;;;;;;4061487;29;20072;-54
2022/12/26 17:56:44;;;;;;;3.42;1.30;;;27.90;58.30;;;;;;4066976;29;20154;-50
2022/12/26 17:59:13;;;;;;;5.05;1.60;;;27.90;58.30;;;;;;4060105;29;20048;-49
2022/12/26 18:01:35;;;;;;;3.65;1.27;;;27.90;58.30;;;;;;4061234;29;20063;-50
2022/12/26 18:03:58;;;;;;;3.45;1.33;;;27.90;58.40;;;;;;4062964;29;20039;-52
2022/12/26 18:06:22;;;;;;;3.90;1.27;;;27.90;58.40;;;;;;4058152;29;20040;-52
2022/12/26 18:08:45;;;;;;;4.20;1.25;;;27.80;58.40;;;;;;4065400;29;20122;-48
2022/12/26 18:11:12;;;;;;;2.17;1.00;;;27.80;58.40;;;;;;4058769;29;20036;-47
2022/12/26 18:13:35;;;;;;;3.78;1.42;;;27.80;58.90;;;;;;4048307;29;20055;-56
2022/12/26 18:15:58;;;;;;;2.30;0.93;;;27.70;58.50;;;;;;4057246;29;20102;-51
2022/12/26 18:18:20;;;;;;;4.20;1.33;;;27.70;58.50;;;;;;4059067;29;20036;-48
2022/12/26 18:20:43;;;;;;;2.60;1.10;;;27.70;58.60;;;;;;4060049;29;20043;-55
2022/12/26 18:23:09;;;;;;;2.90;1.27;;;27.70;58.70;;;;;;4055938;29;20119;-53
2022/12/26 18:25:31;;;;;;;3.97;1.17;;;27.70;58.60;;;;;;4051452;29;20051;-50
2022/12/26 18:27:54;;;;;;;5.28;1.20;;;27.60;58.50;;;;;;4052481;29;20199;-56
2022/12/26 18:30:20;;;;;;;2.28;1.10;;;27.60;58.50;;;;;;4057549;29;20246;-52
2022/12/26 18:32:43;;;;;;;3.53;1.33;;;27.60;58.60;;;;;;4058202;29;20543;-51
2022/12/26 18:35:06;;;;;;;4.22;1.48;;;27.50;58.60;;;;;;4059651;29;20074;-52
2022/12/26 18:37:29;;;;;;;3.57;1.30;;;27.50;58.60;;;;;;4057157;29;20547;-48
2022/12/26 18:39:52;;;;;;;3.00;1.25;;;27.50;58.60;;;;;;4058125;29;20040;-53
2022/12/26 18:42:16;;;;;;;3.88;1.20;;;27.40;58.60;;;;;;4064493;29;20514;-54
2022/12/26 18:44:39;;;;;;;3.58;1.40;;;27.40;58.60;;;;;;4066247;29;20380;-52
2022/12/26 18:47:01;;;;;;;2.35;1.08;;;27.40;58.60;;;;;;4062276;29;20393;-53
2022/12/26 18:49:24;;;;;;;2.67;1.27;;;27.40;58.60;;;;;;4062876;29;20079;-53
2022/12/26 18:51:47;;;;;;;3.72;1.33;;;27.30;58.60;;;;;;4054905;29;20497;-46
2022/12/26 18:54:09;;;;;;;6.05;1.40;;;27.30;58.60;;;;;;4057971;29;20465;-52
2022/12/26 18:56:31;;;;;;;4.20;1.40;;;27.30;58.70;;;;;;4061788;29;20075;-55
2022/12/26 18:58:54;;;;;;;3.72;1.30;;;27.30;58.70;;;;;;4061885;29;20193;-50
2022/12/26 19:01:18;;;;;;;3.45;1.40;;;27.30;58.70;;;;;;4061075;29;20063;-53
2022/12/26 19:03:41;;;;;;;10.75;2.45;;;27.30;58.80;;;;;;4058988;29;20107;-51
2022/12/26 19:06:04;;;;;;;5.13;1.80;;;27.20;58.70;;;;;;4061974;29;20051;-51
2022/12/26 19:08:26;;;;;;;5.22;1.63;;;27.20;58.70;;;;;;4059394;29;20067;-51
2022/12/26 19:10:49;;;;;;;3.67;1.40;;;27.20;58.80;;;;;;4060897;29;20036;-49
2022/12/26 19:13:11;;;;;;;3.50;1.20;;;27.20;58.80;;;;;;4059819;29;20076;-46
2022/12/26 19:15:35;;;;;;;4.45;1.67;;;27.10;58.80;;;;;;4054277;29;20424;-49
2022/12/26 19:17:58;;;;;;;4.22;1.52;;;27.10;58.90;;;;;;4053523;29;20108;-49
2022/12/26 19:20:22;;;;;;;3.55;1.48;;;27.10;58.90;;;;;;4058002;29;20123;-48
2022/12/26 19:22:46;;;;;;;3.20;1.40;;;27.00;58.90;;;;;;4058387;29;20114;-51
2022/12/26 19:25:08;;;;;;;4.97;1.55;;;27.00;59.00;;;;;;4057895;29;20040;-46
2022/12/26 19:27:31;;;;;;;3.35;1.50;;;27.00;59.10;;;;;;4050268;29;20570;-50
2022/12/26 19:29:53;;;;;;;4.18;1.65;;;27.00;59.20;;;;;;4051649;29;20508;-49
2022/12/26 19:32:16;;;;;;;2.97;1.48;;;27.00;59.30;;;;;;4055147;29;20099;-48
2022/12/26 19:34:38;;;;;;;4.13;1.45;;;26.90;59.40;;;;;;4061243;29;20060;-52
2022/12/26 19:37:01;;;;;;;4.97;1.65;;;26.90;59.70;;;;;;4057599;29;20471;-50
2022/12/26 19:39:24;;;;;;;3.60;1.90;;;26.90;59.80;;;;;;4052371;29;20127;-49
2022/12/26 19:41:46;;;;;;;4.07;1.73;;;26.90;60.20;;;;;;4050104;29;20385;-53
2022/12/26 19:44:09;;;;;;;4.68;1.83;;;26.90;60.50;;;;;;4041663;29;20036;-54
2022/12/26 19:46:32;;;;;;;4.85;1.60;;;26.90;60.50;;;;;;4051950;29;20043;-52
2022/12/26 19:48:55;;;;;;;6.07;1.95;;;26.80;60.40;;;;;;4049590;29;20055;-50
2022/12/26 19:51:18;;;;;;;3.53;1.52;;;26.80;60.40;;;;;;4052043;29;20039;-48
2022/12/26 19:53:42;;;;;;;4.57;1.33;;;26.80;60.40;;;;;;4037760;29;20136;-50
2022/12/26 19:56:15;;;;;;;5.03;1.55;;;26.80;60.40;;;;;;4045494;29;20033;-47
2022/12/26 19:58:38;;;;;;;3.40;1.60;;;26.80;60.40;;;;;;4050329;29;20040;-47
2022/12/26 20:01:08;;;;;;;3.72;1.60;;;26.80;60.50;;;;;;4052145;29;20040;-50
2022/12/26 20:03:30;;;;;;;4.65;1.60;;;26.80;60.60;;;;;;4056327;29;20063;-51
2022/12/26 20:05:52;;;;;;;4.65;1.75;;;26.80;60.70;;;;;;4045573;29;20036;-46
2022/12/26 20:08:15;;;;;;;5.43;2.25;;;26.80;60.70;;;;;;4060315;29;20055;-54
2022/12/26 20:10:37;;;;;;;5.63;1.95;;;26.80;60.80;;;;;;4060254;29;20040;-48
2022/12/26 20:13:00;;;;;;;5.82;1.88;;;26.80;60.90;;;;;;4059314;29;20091;-47
2022/12/26 20:15:23;;;;;;;4.10;1.80;;;26.80;61.00;;;;;;4058091;29;20062;-51
2022/12/26 20:17:45;;;;;;;5.32;2.00;;;26.80;61.20;;;;;;4046642;29;20100;-48
2022/12/26 20:20:08;;;;;;;4.93;2.28;;;26.80;62.20;;;;;;4059941;29;20047;-53
2022/12/26 20:22:30;;;;;;;5.27;2.00;;;26.80;61.80;;;;;;4037256;29;20040;-50
2022/12/26 20:24:53;;;;;;;7.32;2.65;;;26.80;61.80;;;;;;4058497;29;20480;-53
2022/12/26 20:27:16;;;;;;;5.07;2.40;;;26.80;61.90;;;;;;4056730;29;20123;-52
2022/12/26 20:29:39;;;;;;;3.40;2.13;;;26.80;61.90;;;;;;4043843;29;20050;-50
2022/12/26 20:32:01;;;;;;;6.80;2.60;;;26.80;62.00;;;;;;4057003;29;20048;-52
2022/12/26 20:34:23;;;;;;;4.15;2.20;;;26.80;62.00;;;;;;4052970;29;20074;-51
2022/12/26 20:36:46;;;;;;;6.05;2.65;;;26.80;62.10;;;;;;4054144;29;20076;-45
2022/12/26 20:39:14;;;;;;;4.25;2.55;;;26.80;62.20;;;;;;4055437;29;20394;-51
2022/12/26 20:41:36;;;;;;;3.90;2.10;;;26.80;62.20;;;;;;4049836;29;20481;-54
2022/12/26 20:43:59;;;;;;;5.53;2.40;;;26.80;62.30;;;;;;4050752;29;20040;-51
2022/12/26 20:46:24;;;;;;;3.78;2.35;;;26.80;62.50;;;;;;4055572;29;20099;-47
2022/12/26 20:48:50;;;;;;;3.58;2.40;;;26.80;62.80;;;;;;4053425;29;20039;-49
2022/12/26 20:51:17;;;;;;;4.88;2.40;;;26.80;62.40;;;;;;4059631;29;20135;-51
2022/12/26 20:53:39;;;;;;;3.33;2.28;;;26.80;62.20;;;;;;4052782;29;20501;-48
2022/12/26 20:56:03;;;;;;;4.47;2.38;;;26.80;62.20;;;;;;4065136;29;20059;-47
2022/12/26 20:58:27;;;;;;;4.10;2.42;;;26.80;62.30;;;;;;4056014;29;20055;-49
2022/12/26 21:01:07;;;;;;;4.65;2.75;;;26.80;62.30;;;;;;4069295;29;20039;-45
2022/12/26 21:03:30;;;;;;;3.85;2.78;;;26.80;62.20;;;;;;4064497;29;20095;-52
2022/12/26 21:05:53;;;;;;;4.38;3.17;;;26.80;61.80;;;;;;4056868;29;20043;-48
2022/12/26 21:08:15;;;;;;;7.07;2.50;;;26.80;62.20;;;;;;4044989;29;20132;-54
2022/12/26 21:10:38;;;;;;;5.28;3.10;;;26.80;62.20;;;;;;4035486;29;20075;-52
2022/12/26 21:13:00;;;;;;;3.80;2.70;;;26.80;62.10;;;;;;4055761;29;20040;-51
2022/12/26 21:15:23;;;;;;;3.13;2.15;;;26.90;62.10;;;;;;4053978;29;20064;-49
2022/12/26 21:17:45;;;;;;;4.70;2.55;;;26.90;62.00;;;;;;4042365;29;20036;-51
2022/12/26 21:20:08;;;;;;;4.03;2.70;;;26.90;62.00;;;;;;4065946;29;20043;-51
2022/12/26 21:22:31;;;;;;;4.67;2.60;;;26.90;62.00;;;;;;4064984;29;20405;-50
2022/12/26 21:24:53;;;;;;;4.28;2.42;;;26.80;61.90;;;;;;4056100;29;20055;-51
2022/12/26 21:27:15;;;;;;;4.05;2.40;;;26.90;61.90;;;;;;4064741;29;20494;-55
2022/12/26 21:29:39;;;;;;;3.30;2.28;;;26.90;62.40;;;;;;4056566;29;20041;-54
2022/12/26 21:32:02;;;;;;;3.92;2.30;;;26.90;61.70;;;;;;4045204;29;20234;-54
2022/12/26 21:34:27;;;;;;;3.75;2.33;;;26.90;61.70;;;;;;4060806;29;20508;-53
2022/12/26 21:39:32;;;;;;;3.25;2.10;;;26.90;61.70;;;;;;4066628;29;20043;-53
2022/12/26 21:41:53;;;;;;;;;;;26.90;61.50;;;;;;4062679;29;20040;-52
2022/12/26 21:44:16;;;;;;;3.97;2.30;;;26.90;61.60;;;;;;4062239;29;20005;-52
2022/12/26 21:46:38;;;;;;;3.58;2.00;;;26.90;61.60;;;;;;4065877;29;20050;-56
2022/12/26 21:49:01;;;;;;;3.75;2.05;;;26.90;61.80;;;;;;4062344;29;20039;-53
2022/12/26 21:51:24;;;;;;;3.78;2.28;;;26.90;61.60;;;;;;4057601;29;20110;-53
2022/12/26 21:53:47;;;;;;;;;;;27.00;61.60;;;;;;4057652;29;20592;-54
2022/12/26 21:56:11;;;;;;;5.85;2.42;;;27.00;61.60;;;;;;4056946;29;19915;-50
2022/12/26 21:59:54;;;;;;;3.67;2.15;;;27.00;61.40;;;;;;4043405;29;20449;-57
2022/12/26 22:01:21;;;;;;;3.83;2.35;;;27.00;61.20;;;;;;4060651;29;21050;-54
2022/12/26 22:06:24;;;;;;;2.85;1.92;;;27.00;61.70;;;;;;4064658;29;20044;-53
2022/12/26 22:08:46;;;;;;;3.20;2.00;;;27.00;61.00;;;;;;4059992;29;20146;-55
2022/12/26 22:13:57;;;;;;;4.00;2.35;;;27.00;60.70;;;;;;4057545;29;20156;-58
2022/12/26 22:16:19;;;;;;;4.75;2.30;;;27.00;60.60;;;;;;4060670;29;20088;-59
2022/12/26 22:18:44;;;;;;;2.83;2.20;;;27.00;60.70;;;;;;4059961;29;20032;-55
2022/12/26 22:21:10;;;;;;;4.15;2.10;;;27.00;60.70;;;;;;4061606;29;20071;-54
2022/12/26 22:23:33;;;;;;;3.88;2.42;;;27.00;60.70;;;;;;4061919;29;20036;-47
2022/12/26 22:25:56;;;;;;;3.88;2.63;;;27.00;60.80;;;;;;4044232;29;20040;-48
2022/12/26 22:28:18;;;;;;;3.90;2.70;;;27.00;60.90;;;;;;4061117;29;20059;-56
2022/12/26 22:30:47;;;;;;;4.70;2.97;;;27.00;61.10;;;;;;4060505;29;20104;-51
2022/12/26 22:33:09;;;;;;;4.13;2.97;;;27.00;61.50;;;;;;4062196;29;20116;-45
2022/12/26 22:35:33;;;;;;;5.22;3.45;;;27.10;61.90;;;;;;4064123;29;20044;-44
2022/12/26 22:37:57;;;;;;;5.88;3.10;;;27.10;61.00;;;;;;4045884;29;20052;-50